Flight Track Log - Related Links

Times and Time Zones

All times are in EDT time to prevent confusion due to time zone crossing. See the UAL91 flight status page for this flight to view local times or setup timezone preferences in your user account.

Time Position Orientation Groundspeed Altitude Reporting Facility
EDT Latitude Longitude Course Direction KTS MPH feet Rate Location/Type
Tue 04:30:32 PM 32.1696 34.7583 323° Northwest  Level FlightAware Approximate
Tue 04:31:32 PM 32.2762 34.6845 323° Northwest  Level FlightAware Approximate
Tue 04:32:32 PM 32.3825 34.6098 323° Northwest  Level FlightAware Approximate
Tue 04:33:32 PM 32.4887 34.5349 322° Northwest  Level FlightAware Approximate
Tue 04:34:32 PM 32.5949 34.4598 322° Northwest  Level FlightAware Approximate
Tue 04:35:32 PM 32.7010 34.3845 322° Northwest  Level FlightAware Approximate
Tue 04:36:32 PM 32.8071 34.3091 322° Northwest  Level FlightAware Approximate
Tue 04:37:32 PM 32.9131 34.2335 322° Northwest  Level FlightAware Approximate
Tue 04:38:32 PM 33.0191 34.1577 322° Northwest  Level FlightAware Approximate
Tue 04:39:32 PM 33.1251 34.0817 322° Northwest  Level FlightAware Approximate
Tue 04:40:32 PM 33.2310 34.0055 322° Northwest  Level FlightAware Approximate
Tue 04:41:32 PM 33.3369 33.9291 322° Northwest  Level FlightAware Approximate
Tue 04:42:32 PM 33.4427 33.8526 322° Northwest  Level FlightAware Approximate
Tue 04:43:32 PM 33.5484 33.7759 322° Northwest  Level FlightAware Approximate
Tue 04:44:32 PM 33.6541 33.6990 322° Northwest  Level FlightAware Approximate
Tue 04:45:32 PM 33.7598 33.6218 322° Northwest  Level FlightAware Approximate
Tue 04:46:32 PM 33.8654 33.5446 322° Northwest  Level FlightAware Approximate
Tue 04:47:32 PM 33.9710 33.4671 322° Northwest  Level FlightAware Approximate
Tue 04:48:32 PM 34.0765 33.3894 321° Northwest  Level FlightAware Approximate
Tue 04:49:32 PM 34.1820 33.3115 321° Northwest  Level FlightAware Approximate
Tue 04:50:32 PM 34.2874 33.2335 321° Northwest  Level FlightAware Approximate
Tue 04:51:32 PM 34.3928 33.1552 321° Northwest  Level FlightAware Approximate
Tue 04:52:32 PM 34.4981 33.0767 321° Northwest  Level FlightAware Approximate
Tue 04:53:32 PM 34.6034 32.9981 321° Northwest  Level FlightAware Approximate
Tue 04:54:32 PM 34.7050 32.9132 321° Northwest  Level FlightAware Approximate
Tue 04:55:32 PM 34.8102 32.8342 321° Northwest  Level FlightAware Approximate
Tue 04:56:32 PM 34.9153 32.7550 321° Northwest  Level FlightAware Approximate
Tue 04:57:32 PM 35.0204 32.6756 321° Northwest  Level FlightAware Approximate
Tue 04:58:32 PM 35.1254 32.5959 321° Northwest  Level FlightAware Approximate
Tue 04:59:32 PM 35.2304 32.5161 321° Northwest  Level FlightAware Approximate
Tue 05:00:32 PM 35.3354 32.4361 321° Northwest  Level FlightAware Approximate
Tue 05:01:32 PM 35.4402 32.3558 321° Northwest  Level FlightAware Approximate
Tue 05:02:32 PM 35.5451 32.2753 320° Northwest  Level FlightAware Approximate
Tue 05:03:32 PM 35.6498 32.1947 320° Northwest  Level FlightAware Approximate
Tue 05:04:32 PM 35.7546 32.1138 320° Northwest  Level FlightAware Approximate
Tue 05:05:32 PM 35.8592 32.0327 320° Northwest  Level FlightAware Approximate
Tue 05:06:32 PM 35.9638 31.9514 320° Northwest  Level FlightAware Approximate
Tue 05:07:32 PM 36.0684 31.8699 320° Northwest  Level FlightAware Approximate
Tue 05:08:32 PM 36.1729 31.7881 320° Northwest  Level FlightAware Approximate
Tue 05:09:32 PM 36.2791 31.7099 320° Northwest  Level FlightAware Approximate
Tue 05:10:32 PM 36.3835 31.6277 320° Northwest  Level FlightAware Approximate
Tue 05:11:32 PM 36.4878 31.5453 320° Northwest  Level FlightAware Approximate
Tue 05:12:32 PM 36.5921 31.4627 320° Northwest  Level FlightAware Approximate
Tue 05:13:32 PM 36.6963 31.3798 320° Northwest  Level FlightAware Approximate
Tue 05:14:32 PM 36.8004 31.2967 319° Northwest  Level FlightAware Approximate
Tue 05:15:32 PM 36.9045 31.2134 319° Northwest  Level FlightAware Approximate
Tue 05:16:32 PM 37.0086 31.1298 319° Northwest  Level FlightAware Approximate
Tue 05:17:32 PM 37.1072 31.0373 319° Northwest  Level FlightAware Approximate
Tue 05:18:32 PM 37.2111 30.9533 319° Northwest  Level FlightAware Approximate
Tue 05:19:32 PM 37.3150 30.8690 319° Northwest  Level FlightAware Approximate
Tue 05:20:32 PM 37.4188 30.7846 319° Northwest  Level FlightAware Approximate
Tue 05:21:32 PM 37.5225 30.6999 319° Northwest  Level FlightAware Approximate
Tue 05:22:32 PM 37.6262 30.6149 319° Northwest  Level FlightAware Approximate
Tue 05:23:32 PM 37.7298 30.5298 319° Northwest  Level FlightAware Approximate
Tue 05:24:32 PM 37.8334 30.4444 319° Northwest  Level FlightAware Approximate
Tue 05:25:32 PM 37.9368 30.3587 319° Northwest  Level FlightAware Approximate
Tue 05:26:32 PM 38.0403 30.2728 318° Northwest  Level FlightAware Approximate
Tue 05:27:32 PM 38.1436 30.1867 318° Northwest  Level FlightAware Approximate
Tue 05:28:32 PM 38.2469 30.1003 318° Northwest  Level FlightAware Approximate
Tue 05:29:32 PM 38.3502 30.0137 318° Northwest  Level FlightAware Approximate
Tue 05:30:32 PM 38.4534 29.9268 318° Northwest  Level FlightAware Approximate
Tue 05:31:32 PM 38.5565 29.8397 318° Northwest  Level FlightAware Approximate
Tue 05:32:32 PM 38.6595 29.7523 318° Northwest  Level FlightAware Approximate
Tue 05:33:32 PM 38.7625 29.6647 318° Northwest  Level FlightAware Approximate
Tue 05:34:32 PM 38.8654 29.5768 318° Northwest  Level FlightAware Approximate
Tue 05:35:32 PM 38.9683 29.4887 318° Northwest  Level FlightAware Approximate
Tue 05:36:32 PM 39.0710 29.4003 318° Northwest  Level FlightAware Approximate
Tue 05:37:32 PM 39.1738 29.3117 317° Northwest  Level FlightAware Approximate
Tue 05:38:32 PM 39.2764 29.2228 317° Northwest  Level FlightAware Approximate
Tue 05:39:32 PM 39.3790 29.1336 317° Northwest  Level FlightAware Approximate
Tue 05:40:32 PM 39.4815 29.0442 317° Northwest  Level FlightAware Approximate
Tue 05:41:32 PM 39.5840 28.9545 317° Northwest  Level FlightAware Approximate
Tue 05:42:32 PM 39.6863 28.8645 317° Northwest  Level FlightAware Approximate
Tue 05:43:32 PM 39.7887 28.7743 317° Northwest  Level FlightAware Approximate
Tue 05:44:32 PM 39.8909 28.6838 317° Northwest  Level FlightAware Approximate
Tue 05:45:32 PM 39.9930 28.5931 317° Northwest  Level FlightAware Approximate
Tue 05:46:32 PM 40.0963 28.5010 317° Northwest  Level FlightAware Approximate
Tue 05:47:32 PM 40.1996 28.4086 316° Northwest  Level FlightAware Approximate
Tue 05:48:32 PM 40.3027 28.3159 316° Northwest  Level FlightAware Approximate
Tue 05:49:32 PM 40.4058 28.2230 316° Northwest  Level FlightAware Approximate
Tue 05:50:32 PM 40.5088 28.1298 316° Northwest  Level FlightAware Approximate
Tue 05:51:32 PM 40.6117 28.0362 316° Northwest  Level FlightAware Approximate
Tue 05:52:32 PM 40.7145 27.9424 316° Northwest  Level FlightAware Approximate
Tue 05:53:32 PM 40.8173 27.8483 316° Northwest  Level FlightAware Approximate
Tue 05:54:32 PM 40.9200 27.7540 316° Northwest  Level FlightAware Approximate
Tue 05:55:32 PM 41.0226 27.6593 316° Northwest  Level FlightAware Approximate
Tue 05:56:32 PM 41.1251 27.5643 315° West  Level FlightAware Approximate
Tue 05:57:32 PM 41.2276 27.4690 315° West  Level FlightAware Approximate
Tue 05:58:32 PM 41.3300 27.3734 315° West  Level FlightAware Approximate
Tue 05:59:32 PM 41.4323 27.2776 315° West  Level FlightAware Approximate
Tue 06:00:32 PM 41.5345 27.1814 315° West  Level FlightAware Approximate
Tue 06:01:32 PM 41.6366 27.0849 315° West  Level FlightAware Approximate
Tue 06:02:32 PM 41.7387 26.9881 315° West  Level FlightAware Approximate
Tue 06:03:32 PM 41.8407 26.8910 315° West  Level FlightAware Approximate
Tue 06:04:32 PM 41.9426 26.7936 314° West  Level FlightAware Approximate
Tue 06:05:32 PM 42.0444 26.6959 314° West  Level FlightAware Approximate
Tue 06:06:32 PM 42.1461 26.5979 314° West  Level FlightAware Approximate
Tue 06:07:32 PM 42.2478 26.4995 314° West  Level FlightAware Approximate
Tue 06:08:32 PM 42.3493 26.4009 314° West  Level FlightAware Approximate
Tue 06:09:32 PM 42.4508 26.3019 314° West  Level FlightAware Approximate
Tue 06:10:32 PM 42.5522 26.2026 314° West  Level FlightAware Approximate
Tue 06:11:32 PM 42.6535 26.1030 314° West  Level FlightAware Approximate
Tue 06:12:32 PM 42.7547 26.0030 313° West  Level FlightAware Approximate
Tue 06:13:32 PM 42.8558 25.9028 313° West  Level FlightAware Approximate
Tue 06:14:32 PM 42.9569 25.8021 313° West  Level FlightAware Approximate
Tue 06:15:32 PM 43.0578 25.7012 313° West  Level FlightAware Approximate
Tue 06:16:32 PM 43.1587 25.5999 313° West  Level FlightAware Approximate
Tue 06:17:32 PM 43.2595 25.4983 313° West  Level FlightAware Approximate
Tue 06:18:32 PM 43.3602 25.3964 313° West  Level FlightAware Approximate
Tue 06:19:32 PM 43.4608 25.2941 313° West  Level FlightAware Approximate
Tue 06:20:32 PM 43.5613 25.1915 312° West  Level FlightAware Approximate
Tue 06:21:32 PM 43.6617 25.0885 312° West  Level FlightAware Approximate
Tue 06:22:32 PM 43.7620 24.9852 312° West  Level FlightAware Approximate
Tue 06:23:32 PM 43.8622 24.8816 312° West  Level FlightAware Approximate
Tue 06:24:32 PM 43.9623 24.7776 312° West  Level FlightAware Approximate
Tue 06:25:32 PM 44.0624 24.6732 312° West  Level FlightAware Approximate
Tue 06:26:32 PM 44.1623 24.5685 312° West  Level FlightAware Approximate
Tue 06:27:32 PM 44.2622 24.4634 311° West  Level FlightAware Approximate
Tue 06:28:32 PM 44.3619 24.3580 311° West  Level FlightAware Approximate
Tue 06:29:32 PM 44.4616 24.2522 311° West  Level FlightAware Approximate
Tue 06:30:32 PM 44.5611 24.1461 311° West  Level FlightAware Approximate
Tue 06:31:32 PM 44.6606 24.0396 311° West  Level FlightAware Approximate
Tue 06:32:32 PM 44.7599 23.9327 311° West  Level FlightAware Approximate
Tue 06:33:32 PM 44.8592 23.8255 310° West  Level FlightAware Approximate
Tue 06:34:32 PM 44.9583 23.7179 310° West  Level FlightAware Approximate
Tue 06:35:32 PM 45.0574 23.6099 310° West  Level FlightAware Approximate
Tue 06:36:32 PM 45.1563 23.5015 310° West  Level FlightAware Approximate
Tue 06:37:32 PM 45.2552 23.3928 310° West  Level FlightAware Approximate
Tue 06:38:32 PM 45.3539 23.2837 310° West  Level FlightAware Approximate
Tue 06:39:32 PM 45.4525 23.1742 309° West  Level FlightAware Approximate
Tue 06:40:32 PM 45.5511 23.0643 309° West  Level FlightAware Approximate
Tue 06:41:32 PM 45.6495 22.9541 309° West  Level FlightAware Approximate
Tue 06:42:32 PM 45.7478 22.8434 309° West  Level FlightAware Approximate
Tue 06:43:32 PM 45.8461 22.7324 309° West  Level FlightAware Approximate
Tue 06:44:32 PM 45.9442 22.6209 309° West  Level FlightAware Approximate
Tue 06:45:32 PM 46.0422 22.5091 308° West  Level FlightAware Approximate
Tue 06:46:32 PM 46.1400 22.3969 308° West  Level FlightAware Approximate
Tue 06:47:32 PM 46.2378 22.2842 308° West  Level FlightAware Approximate
Tue 06:48:32 PM 46.3355 22.1712 308° West  Level FlightAware Approximate
Tue 06:49:32 PM 46.4331 22.0578 308° West  Level FlightAware Approximate
Tue 06:50:32 PM 46.5305 21.9439 307° West  Level FlightAware Approximate
Tue 06:51:32 PM 46.6278 21.8297 307° West  Level FlightAware Approximate
Tue 06:52:32 PM 46.7251 21.7150 307° West  Level FlightAware Approximate
Tue 06:53:32 PM 46.8222 21.6000 307° West  Level FlightAware Approximate
Tue 06:54:32 PM 46.9191 21.4845 307° West  Level FlightAware Approximate
Tue 06:55:32 PM 47.0160 21.3686 307° West  Level FlightAware Approximate
Tue 06:56:32 PM 47.1128 21.2522 306° West  Level FlightAware Approximate
Tue 06:57:32 PM 47.2094 21.1355 306° West  Level FlightAware Approximate
Tue 06:58:32 PM 47.3059 21.0183 306° West  Level FlightAware Approximate
Tue 06:59:32 PM 47.4023 20.9007 306° West  Level FlightAware Approximate
Tue 07:00:32 PM 47.4986 20.7826 305° West  Level FlightAware Approximate
Tue 07:01:32 PM 47.5947 20.6642 305° West  Level FlightAware Approximate
Tue 07:02:32 PM 47.6908 20.5453 305° West  Level FlightAware Approximate
Tue 07:03:32 PM 47.7867 20.4259 305° West  Level FlightAware Approximate
Tue 07:04:32 PM 47.8825 20.3062 305° West  Level FlightAware Approximate
Tue 07:05:32 PM 47.9781 20.1859 304° West  Level FlightAware Approximate
Tue 07:06:32 PM 48.0736 20.0653 304° West  Level FlightAware Approximate
Tue 07:07:32 PM 48.1690 19.9441 304° West  Level FlightAware Approximate
Tue 07:08:32 PM 48.2643 19.8226 304° West  Level FlightAware Approximate
Tue 07:09:32 PM 48.3595 19.7005 303° West  Level FlightAware Approximate
Tue 07:10:32 PM 48.4545 19.5780 303° West  Level FlightAware Approximate
Tue 07:11:32 PM 48.5494 19.4551 303° West  Level FlightAware Approximate
Tue 07:12:32 PM 48.6441 19.3317 303° West  Level FlightAware Approximate
Tue 07:13:32 PM 48.7388 19.2078 302° West  Level FlightAware Approximate
Tue 07:14:32 PM 48.8332 19.0835 302° West  Level FlightAware Approximate
Tue 07:15:32 PM 48.9276 18.9587 302° West  Level FlightAware Approximate
Tue 07:16:32 PM 49.0218 18.8334 302° West  Level FlightAware Approximate
Tue 07:17:32 PM 49.1159 18.7076 301° West  Level FlightAware Approximate
Tue 07:18:32 PM 49.2099 18.5814 301° West  Level FlightAware Approximate
Tue 07:19:32 PM 49.3037 18.4547 301° West  Level FlightAware Approximate
Tue 07:20:32 PM 49.4003 18.3364 301° West  Level FlightAware Approximate
Tue 07:21:32 PM 49.4939 18.2086 300° West  Level FlightAware Approximate
Tue 07:22:32 PM 49.5872 18.0804 300° West  Level FlightAware Approximate
Tue 07:23:32 PM 49.6804 17.9517 300° West  Level FlightAware Approximate
Tue 07:24:32 PM 49.7735 17.8224 299° West  Level FlightAware Approximate
Tue 07:25:32 PM 49.8664 17.6927 299° West  Level FlightAware Approximate
Tue 07:26:32 PM 49.9592 17.5625 299° West  Level FlightAware Approximate
Tue 07:27:32 PM 50.0518 17.4318 298° West  Level FlightAware Approximate
Tue 07:28:32 PM 50.1443 17.3005 298° West  Level FlightAware Approximate
Tue 07:29:32 PM 50.2367 17.1688 298° West  Level FlightAware Approximate
Tue 07:30:32 PM 50.3289 17.0366 298° West  Level FlightAware Approximate
Tue 07:31:32 PM 50.4209 16.9038 297° West  Level FlightAware Approximate
Tue 07:32:32 PM 50.5128 16.7705 297° West  Level FlightAware Approximate
Tue 07:33:32 PM 50.6045 16.6367 297° West  Level FlightAware Approximate
Tue 07:34:32 PM 50.6961 16.5024 296° West  Level FlightAware Approximate
Tue 07:35:32 PM 50.7883 16.3689 296° West  Level FlightAware Approximate
Tue 07:36:32 PM 50.8796 16.2336 295° West  Level FlightAware Approximate
Tue 07:37:32 PM 50.9708 16.0978 295° West  Level FlightAware Approximate
Tue 07:38:32 PM 51.0618 15.9615 295° West  Level FlightAware Approximate
Tue 07:39:32 PM 51.1527 15.8246 294° West  Level FlightAware Approximate
Tue 07:40:32 PM 51.2434 15.6873 294° West  Level FlightAware Approximate
Tue 07:41:32 PM 51.3339 15.5493 294° West  Level FlightAware Approximate
Tue 07:42:32 PM 51.4243 15.4108 293° West  Level FlightAware Approximate
Tue 07:43:32 PM 51.5145 15.2718 293° West  Level FlightAware Approximate
Tue 07:44:32 PM 51.6046 15.1322 292° West  Level FlightAware Approximate
Tue 07:45:32 PM 51.6945 14.9921 292° West  Level FlightAware Approximate
Tue 07:46:32 PM 51.7842 14.8514 291° West  Level FlightAware Approximate
Tue 07:47:32 PM 51.8737 14.7101 291° West  Level FlightAware Approximate
Tue 07:48:32 PM 51.9631 14.5683 290° West  Level FlightAware Approximate
Tue 07:49:32 PM 52.0523 14.4260 290° West  Level FlightAware Approximate
Tue 07:50:32 PM 52.1414 14.2830 290° West  Level FlightAware Approximate
Tue 07:51:32 PM 52.2302 14.1395 289° West  Level FlightAware Approximate
Tue 07:52:32 PM 52.3189 13.9954 289° West  Level FlightAware Approximate
Tue 07:53:32 PM 52.4074 13.8507 288° West  Level FlightAware Approximate
Tue 07:54:32 PM 52.4958 13.7054 288° West  Level FlightAware Approximate
Tue 07:55:32 PM 52.5839 13.5596 287° West  Level FlightAware Approximate
Tue 07:56:32 PM 52.6719 13.4132 286° West  Level FlightAware Approximate
Tue 07:57:32 PM 52.7597 13.2662 286° West  Level FlightAware Approximate
Tue 07:58:32 PM 52.8473 13.1185 285° West  Level FlightAware Approximate
Tue 07:59:32 PM 52.9348 12.9703 285° West  Level FlightAware Approximate
Tue 08:00:32 PM 53.0220 12.8215 284° West  Level FlightAware Approximate
Tue 08:01:32 PM 53.1091 12.6721 283° West  Level FlightAware Approximate
Tue 08:02:32 PM 53.1959 12.5221 283° West  Level FlightAware Approximate
Tue 08:03:32 PM 53.2826 12.3715 282° West  Level FlightAware Approximate
Tue 08:04:32 PM 53.3691 12.2202 281° West  Level FlightAware Approximate
Tue 08:05:32 PM 53.4554 12.0684 281° West  Level FlightAware Approximate
Tue 08:06:32 PM 53.5415 11.9159 280° West  Level FlightAware Approximate
Tue 08:07:32 PM 53.6274 11.7628 279° West  Level FlightAware Approximate
Tue 08:08:32 PM 53.7131 11.6091 279° West  Level FlightAware Approximate
Tue 08:09:32 PM 53.7987 11.4548 278° West  Level FlightAware Approximate
Tue 08:10:32 PM 53.8840 11.2998 277° West  Level FlightAware Approximate
Tue 08:11:32 PM 53.9687 11.1449 276° West  Level FlightAware Approximate
Tue 08:12:32 PM 54.0533 10.9893 275° West  Level FlightAware Approximate
Tue 08:13:32 PM 54.1376 10.8331 274° West  Level FlightAware Approximate
Tue 08:14:32 PM 54.2218 10.6763 274° West  Level FlightAware Approximate
Tue 08:15:32 PM 54.3057 10.5188 273° West  Level FlightAware Approximate
Tue 08:16:32 PM 54.3894 10.3607 272° West  Level FlightAware Approximate
Tue 08:17:32 PM 54.4729 10.2020 271° West  Level FlightAware Approximate
Tue 08:18:32 PM 54.5563 10.0426 270° West  Level FlightAware Approximate
Tue 08:19:32 PM 54.6394 9.8825 269° West  Level FlightAware Approximate
Tue 08:20:32 PM 54.7223 9.7218 268° West  Level FlightAware Approximate
Tue 08:21:32 PM 54.8049 9.5604 267° West  Level FlightAware Approximate
Tue 08:22:32 PM 54.8874 9.3984 265° West  Level FlightAware Approximate
Tue 08:23:32 PM 54.9697 9.2357 264° West  Level FlightAware Approximate
Tue 08:24:32 PM 55.0517 9.0724 263° West  Level FlightAware Approximate
Tue 08:25:32 PM 55.1335 8.9083 262° West  Level FlightAware Approximate
Tue 08:26:32 PM 55.2151 8.7436 260° West  Level FlightAware Approximate
Tue 08:27:32 PM 55.2965 8.5783 259° West  Level FlightAware Approximate
Tue 08:28:32 PM 55.3776 8.4122 258° West  Level FlightAware Approximate
Tue 08:29:32 PM 55.4585 8.2455 256° West  Level FlightAware Approximate
Tue 08:30:32 PM 55.5392 8.0780 255° West  Level FlightAware Approximate
Tue 08:31:32 PM 55.6197 7.9099 253° West  Level FlightAware Approximate
Tue 08:32:32 PM 55.6999 7.7411 252° West  Level FlightAware Approximate
Tue 08:33:32 PM 55.7799 7.5717 250° West  Level FlightAware Approximate
Tue 08:34:32 PM 55.8596 7.4015 249° West  Level FlightAware Approximate
Tue 08:35:32 PM 55.9392 7.2306 247° West  Level FlightAware Approximate
Tue 08:36:32 PM 56.0185 7.0590 245° Southwest  Level FlightAware Approximate
Tue 08:37:32 PM 56.0975 6.8867 243° Southwest  Level FlightAware Approximate
Tue 08:38:32 PM 56.1763 6.7137 242° Southwest  Level FlightAware Approximate
Tue 08:39:32 PM 56.2549 6.5400 240° Southwest  Level FlightAware Approximate
Tue 08:40:32 PM 56.3332 6.3656 238° Southwest  Level FlightAware Approximate
Tue 08:41:32 PM 56.4113 6.1904 236° Southwest  Level FlightAware Approximate
Tue 08:42:32 PM 56.4891 6.0146 234° Southwest  Level FlightAware Approximate
Tue 08:43:32 PM 56.5667 5.8380 232° Southwest  Level FlightAware Approximate
Tue 08:44:32 PM 56.6440 5.6607 230° Southwest  Level FlightAware Approximate
Tue 08:45:32 PM 56.7211 5.4826 228° Southwest  Level FlightAware Approximate
Tue 08:46:32 PM 56.7979 5.3039 226° Southwest  Level FlightAware Approximate
Tue 08:47:32 PM 56.8745 5.1244 224° Southwest  Level FlightAware Approximate
Tue 08:48:32 PM 56.9508 4.9441 222° Southwest  Level FlightAware Approximate
Tue 08:49:32 PM 57.0268 4.7632 219° Southwest  Level FlightAware Approximate
Tue 08:50:32 PM 54.1814 0.8525 301° West 445 512 36,000  Level FlightAware ADS-B
Tue 08:58:32 PM 54.9725 -0.1838 299° West  Level FlightAware Approximate
Tue 08:59:32 PM 55.0707 -0.3162 298° West  Level FlightAware Approximate
Tue 09:00:32 PM 55.1688 -0.4492 298° West  Level FlightAware Approximate
Tue 09:01:32 PM 55.2668 -0.5829 298° West  Level FlightAware Approximate
Tue 09:02:32 PM 55.3646 -0.7173 297° West  Level FlightAware Approximate
Tue 09:03:32 PM 55.4623 -0.8523 297° West  Level FlightAware Approximate
Tue 09:04:32 PM 55.5598 -0.9880 296° West  Level FlightAware Approximate
Tue 09:05:32 PM 55.6572 -1.1244 296° West  Level FlightAware Approximate
Tue 09:06:32 PM 55.7544 -1.2614 296° West  Level FlightAware Approximate
Tue 09:07:32 PM 55.8514 -1.3992 295° West  Level FlightAware Approximate
Tue 09:08:32 PM 55.9483 -1.5376 295° West  Level FlightAware Approximate
Tue 09:09:32 PM 56.0451 -1.6767 294° West  Level FlightAware Approximate
Tue 09:10:32 PM 56.1417 -1.8165 294° West  Level FlightAware Approximate
Tue 09:11:32 PM 56.2281 -1.9766 294° West  Level FlightAware Approximate
Tue 09:12:32 PM 56.3144 -2.1374 293° West  Level FlightAware Approximate
Tue 09:13:32 PM 56.4005 -2.2989 293° West  Level FlightAware Approximate
Tue 09:14:32 PM 56.4863 -2.4611 292° West  Level FlightAware Approximate
Tue 09:15:32 PM 56.5720 -2.6241 292° West  Level FlightAware Approximate
Tue 09:16:32 PM 56.6574 -2.7878 292° West  Level FlightAware Approximate
Tue 09:17:32 PM 56.7426 -2.9523 291° West  Level FlightAware Approximate
Tue 09:18:32 PM 56.8276 -3.1175 291° West  Level FlightAware Approximate
Tue 09:19:32 PM 56.9124 -3.2834 290° West  Level FlightAware Approximate
Tue 09:20:32 PM 56.9969 -3.4502 290° West  Level FlightAware Approximate
Tue 09:21:32 PM 57.0812 -3.6176 289° West  Level FlightAware Approximate
Tue 09:22:32 PM 57.1654 -3.7859 289° West  Level FlightAware Approximate
Tue 09:23:32 PM 57.2492 -3.9549 288° West  Level FlightAware Approximate
Tue 09:24:32 PM 57.3329 -4.1246 288° West  Level FlightAware Approximate
Tue 09:25:32 PM 57.4163 -4.2952 287° West  Level FlightAware Approximate
Tue 09:26:32 PM 57.4995 -4.4665 287° West  Level FlightAware Approximate
Tue 09:27:32 PM 57.5825 -4.6386 286° West  Level FlightAware Approximate
Tue 09:28:32 PM 57.6652 -4.8115 286° West  Level FlightAware Approximate
Tue 09:29:32 PM 57.7477 -4.9852 285° West  Level FlightAware Approximate
Tue 09:30:32 PM 57.8299 -5.1596 285° West  Level FlightAware Approximate
Tue 09:31:32 PM 57.9119 -5.3349 284° West  Level FlightAware Approximate
Tue 09:32:32 PM 57.9937 -5.5110 284° West  Level FlightAware Approximate
Tue 09:33:32 PM 58.0752 -5.6878 283° West  Level FlightAware Approximate
Tue 09:34:32 PM 58.1564 -5.8655 283° West  Level FlightAware Approximate
Tue 09:35:32 PM 58.2375 -6.0440 282° West  Level FlightAware Approximate
Tue 09:36:32 PM 58.3182 -6.2233 281° West  Level FlightAware Approximate
Tue 09:37:32 PM 58.3988 -6.4035 281° West  Level FlightAware Approximate
Tue 09:38:32 PM 58.4790 -6.5844 280° West  Level FlightAware Approximate
Tue 09:39:32 PM 58.5590 -6.7662 279° West  Level FlightAware Approximate
Tue 09:40:32 PM 58.6388 -6.9488 279° West  Level FlightAware Approximate
Tue 09:41:32 PM 58.7183 -7.1322 278° West  Level FlightAware Approximate
Tue 09:42:32 PM 58.7975 -7.3165 277° West  Level FlightAware Approximate
Tue 09:43:32 PM 58.8765 -7.5016 276° West  Level FlightAware Approximate
Tue 09:44:32 PM 58.9552 -7.6876 276° West  Level FlightAware Approximate
Tue 09:45:32 PM 59.0336 -7.8744 275° West  Level FlightAware Approximate
Tue 09:46:32 PM 59.1118 -8.0621 274° West  Level FlightAware Approximate
Tue 09:47:32 PM 59.1897 -8.2506 273° West  Level FlightAware Approximate
Tue 09:48:32 PM 59.2673 -8.4400 272° West  Level FlightAware Approximate
Tue 09:49:32 PM 59.3447 -8.6303 272° West  Level FlightAware Approximate
Tue 09:50:32 PM 59.4217 -8.8214 271° West  Level FlightAware Approximate
Tue 09:51:32 PM 59.4985 -9.0134 270° West  Level FlightAware Approximate
Tue 09:52:32 PM 59.5750 -9.2063 269° West  Level FlightAware Approximate
Tue 09:53:32 PM 59.6512 -9.4000 268° West  Level FlightAware Approximate
Tue 09:54:32 PM 59.7272 -9.5946 267° West  Level FlightAware Approximate
Tue 09:55:32 PM 59.8028 -9.7901 266° West  Level FlightAware Approximate
Tue 09:56:32 PM 59.8782 -9.9865 265° West  Level FlightAware Approximate
Tue 09:57:32 PM 59.9532 -10.1838 263° West  Level FlightAware Approximate
Tue 09:58:32 PM 60.0280 -10.3820 262° West  Level FlightAware Approximate
Tue 09:59:32 PM 60.1024 -10.5811 261° West  Level FlightAware Approximate
Tue 10:00:32 PM 60.1766 -10.7810 260° West  Level FlightAware Approximate
Tue 10:01:32 PM 60.2505 -10.9819 259° West  Level FlightAware Approximate
Tue 10:02:32 PM 60.3240 -11.1837 257° West  Level FlightAware Approximate
Tue 10:03:32 PM 60.3973 -11.3864 256° West  Level FlightAware Approximate
Tue 10:04:32 PM 60.4702 -11.5900 255° West  Level FlightAware Approximate
Tue 10:05:32 PM 60.5428 -11.7945 253° West  Level FlightAware Approximate
Tue 10:06:32 PM 60.6151 -12.0000 252° West  Level FlightAware Approximate
Tue 10:07:32 PM 60.6871 -12.2063 250° West  Level FlightAware Approximate
Tue 10:08:32 PM 60.7588 -12.4136 249° West  Level FlightAware Approximate
Tue 10:09:32 PM 60.8302 -12.6218 247° West  Level FlightAware Approximate
Tue 10:10:32 PM 60.9012 -12.8310 245° Southwest  Level FlightAware Approximate
Tue 10:11:32 PM 60.9719 -13.0410 244° Southwest  Level FlightAware Approximate
Tue 10:12:32 PM 61.0423 -13.2521 242° Southwest  Level FlightAware Approximate
Tue 10:13:32 PM 61.1124 -13.4640 240° Southwest  Level FlightAware Approximate
Tue 10:14:32 PM 61.1821 -13.6769 238° Southwest  Level FlightAware Approximate
Tue 10:15:32 PM 61.2514 -13.8907 236° Southwest  Level FlightAware Approximate
Tue 10:16:32 PM 61.3205 -14.1055 234° Southwest  Level FlightAware Approximate
Tue 10:17:32 PM 61.3892 -14.3212 232° Southwest  Level FlightAware Approximate
Tue 10:18:32 PM 61.4576 -14.5378 230° Southwest  Level FlightAware Approximate
Tue 10:19:32 PM 61.5256 -14.7555 228° Southwest  Level FlightAware Approximate
Tue 10:20:32 PM 61.5932 -14.9740 226° Southwest  Level FlightAware Approximate
Tue 10:21:32 PM 61.6167 -15.2304 224° Southwest  Level FlightAware Approximate
Tue 10:22:32 PM 61.6398 -15.4871 222° Southwest  Level FlightAware Approximate
Tue 10:23:32 PM 61.6623 -15.7442 220° Southwest  Level FlightAware Approximate
Tue 10:24:32 PM 61.6844 -16.0017 218° Southwest  Level FlightAware Approximate
Tue 10:25:32 PM 61.7059 -16.2595 216° Southwest  Level FlightAware Approximate
Tue 10:26:32 PM 61.7270 -16.5177 214° Southwest  Level FlightAware Approximate
Tue 10:27:32 PM 61.7476 -16.7763 212° Southwest  Level FlightAware Approximate
Tue 10:28:32 PM 61.7678 -17.0352 209° Southwest  Level FlightAware Approximate
Tue 10:29:00 PM 59.0000 -20.0000 274° West 474 545 34,000  Level ETMS Enhanced Traffic Management System
Tue 10:29:32 PM 61.7874 -17.2944 222° Southwest  Level FlightAware Approximate
Tue 10:30:32 PM 61.8065 -17.5540 220° Southwest  Level FlightAware Approximate
Tue 10:31:32 PM 61.8252 -17.8139 218° Southwest  Level FlightAware Approximate
Tue 10:32:32 PM 61.8433 -18.0741 216° Southwest  Level FlightAware Approximate
Tue 10:33:32 PM 61.8610 -18.3346 214° Southwest  Level FlightAware Approximate
Tue 10:36:32 PM 59.0600 -21.9280 273° West 474 545 34,000  Level FlightAware Transoceanic
Tue 10:37:32 PM 59.0658 -22.1844 272° West 474 545 34,000  Level FlightAware Transoceanic
Tue 10:38:32 PM 59.0712 -22.4409 272° West 474 545 34,000  Level FlightAware Transoceanic
Tue 10:39:32 PM 59.0760 -22.6975 272° West 474 545 34,000  Level FlightAware Transoceanic
Tue 10:40:32 PM 59.0802 -22.9541 272° West 474 545 34,000  Level FlightAware Transoceanic
Tue 10:41:32 PM 59.0840 -23.2108 272° West 474 545 34,000  Level FlightAware Transoceanic
Tue 10:42:32 PM 59.0873 -23.4675 271° West 474 545 34,000  Level FlightAware Transoceanic
Tue 10:43:32 PM 59.0901 -23.7243 271° West 474 545 34,000  Level FlightAware Transoceanic
Tue 10:44:32 PM 59.0924 -23.9811 271° West 474 545 34,000  Level FlightAware Transoceanic
Tue 10:45:32 PM 59.0941 -24.2379 271° West 474 545 34,000  Level FlightAware Transoceanic
Tue 10:46:32 PM 59.0954 -24.4948 270° West 474 545 34,000  Level FlightAware Transoceanic
Tue 10:47:32 PM 59.0961 -24.7517 270° West 474 545 34,000  Level FlightAware Transoceanic
Tue 10:48:32 PM 59.0964 -25.0086 270° West 474 545 34,000  Level FlightAware Transoceanic
Tue 10:49:32 PM 59.0961 -25.2654 270° West 474 545 34,000  Level FlightAware Transoceanic
Tue 10:50:32 PM 59.0953 -25.5223 270° West 474 545 34,000  Level FlightAware Transoceanic
Tue 10:51:32 PM 59.0940 -25.7792 269° West 474 545 34,000  Level FlightAware Transoceanic
Tue 10:52:32 PM 59.0922 -26.0360 269° West 474 545 34,000  Level FlightAware Transoceanic
Tue 10:53:32 PM 59.0899 -26.2929 269° West 474 545 34,000  Level FlightAware Transoceanic
Tue 10:54:32 PM 59.0871 -26.5496 269° West 474 545 34,000  Level FlightAware Transoceanic
Tue 10:55:32 PM 59.0838 -26.8064 268° West 474 545 34,000  Level FlightAware Transoceanic
Tue 10:56:32 PM 59.0800 -27.0630 268° West 474 545 34,000  Level FlightAware Transoceanic
Tue 10:57:32 PM 59.0756 -27.3196 268° West 474 545 34,000  Level FlightAware Transoceanic
Tue 10:58:32 PM 59.0708 -27.5762 268° West 474 545 34,000  Level FlightAware Transoceanic
Tue 10:59:32 PM 59.0655 -27.8327 268° West 474 545 34,000  Level FlightAware Transoceanic
Tue 11:00:32 PM 59.0596 -28.0890 267° West 474 545 34,000  Level FlightAware Transoceanic
Tue 11:01:32 PM 59.0533 -28.3453 267° West 474 545 34,000  Level FlightAware Transoceanic
Tue 11:02:32 PM 59.0464 -28.6015 267° West 474 545 34,000  Level FlightAware Transoceanic
Tue 11:03:32 PM 59.0391 -28.8576 267° West 474 545 34,000  Level FlightAware Transoceanic
Tue 11:04:32 PM 59.0312 -29.1136 266° West 474 545 34,000  Level FlightAware Transoceanic
Tue 11:05:32 PM 59.0228 -29.3694 266° West 474 545 34,000  Level FlightAware Transoceanic
Tue 11:06:32 PM 59.0139 -29.6252 266° West 474 545 34,000  Level FlightAware Transoceanic
Tue 11:07:32 PM 59.0046 -29.8808 264° West 474 545 34,000  Level FlightAware Transoceanic
Tue 11:08:32 PM 59.0241 -30.1189 263° West  Level FlightAware Approximate
Tue 11:09:32 PM 59.0254 -30.3601 263° West  Level FlightAware Approximate
Tue 11:10:32 PM 59.0263 -30.6014 262° West  Level FlightAware Approximate
Tue 11:11:32 PM 59.0267 -30.8426 261° West  Level FlightAware Approximate
Tue 11:12:32 PM 59.0267 -31.0838 261° West  Level FlightAware Approximate
Tue 11:13:32 PM 59.0262 -31.3251 260° West  Level FlightAware Approximate
Tue 11:14:32 PM 59.0253 -31.5663 259° West  Level FlightAware Approximate
Tue 11:15:32 PM 59.0239 -31.8075 259° West  Level FlightAware Approximate
Tue 11:16:32 PM 59.0221 -32.0487 258° West  Level FlightAware Approximate
Tue 11:17:32 PM 59.0198 -32.2899 257° West  Level FlightAware Approximate
Tue 11:18:32 PM 59.0171 -32.5310 256° West  Level FlightAware Approximate
Tue 11:19:32 PM 59.0139 -32.7721 255° West  Level FlightAware Approximate
Tue 11:20:32 PM 59.0103 -33.0131 254° West  Level FlightAware Approximate
Tue 11:21:32 PM 59.0063 -33.2541 253° West  Level FlightAware Approximate
Tue 11:22:32 PM 59.0018 -33.4950 251° West  Level FlightAware Approximate
Tue 11:23:32 PM 58.9968 -33.7359 250° West  Level FlightAware Approximate
Tue 11:24:32 PM 58.9914 -33.9767 248° West  Level FlightAware Approximate
Tue 11:25:32 PM 58.9855 -34.2174 246° West  Level FlightAware Approximate
Tue 11:26:32 PM 58.9793 -34.4580 243° Southwest  Level FlightAware Approximate
Tue 11:27:32 PM 58.9725 -34.6985 240° Southwest  Level FlightAware Approximate
Tue 11:28:32 PM 58.9653 -34.9389 236° Southwest  Level FlightAware Approximate
Tue 11:29:32 PM 58.9577 -35.1793 230° Southwest  Level FlightAware Approximate
Tue 11:30:32 PM 58.9496 -35.4195 224° Southwest  Level FlightAware Approximate
Tue 11:31:32 PM 58.9411 -35.6596 215° Southwest  Level FlightAware Approximate
Tue 11:32:32 PM 58.9321 -35.8996 203° Southwest  Level FlightAware Approximate
Tue 11:33:32 PM 58.9227 -36.1394 189° South  Level FlightAware Approximate
Tue 11:34:32 PM 58.9129 -36.3791 172° South  Level FlightAware Approximate
Tue 11:35:29 PM 58.4833 -36.2667 258° West 460 529 34,000  Level Gander Center
Tue 11:40:29 PM 58.3500 -37.4333 248° West 460 529 34,000  Level Gander Center
Tue 11:41:29 PM 58.3000 -37.6667 262° West 460 529 34,000  Level Gander Center
Tue 11:42:29 PM 58.2833 -37.9000 255° West 460 529 34,000  Level Gander Center
Tue 11:43:29 PM 58.2500 -38.1333 262° West 460 529 34,000  Level Gander Center
Tue 11:44:29 PM 58.2333 -38.3667 254° West 460 529 34,000  Level Gander Center
Tue 11:45:29 PM 58.2000 -38.5833 256° West 460 529 34,000  Level Gander Center
Tue 11:46:29 PM 58.1667 -38.8333 254° West 460 529 34,000  Level Gander Center
Tue 11:47:29 PM 58.1333 -39.0500 262° West 460 529 34,000  Level Gander Center
Tue 11:48:29 PM 58.1167 -39.2667 256° West 460 529 34,000  Level Gander Center
Tue 11:49:29 PM 58.0833 -39.5167 251° West 460 529 34,000  Level Gander Center
Tue 11:50:14 PM 58.0500 -39.7000 258° West 460 529 34,000  Level Gander Center
Tue 11:51:29 PM 58.0167 -39.9833 270° West 460 529 34,000  Level Gander Center
Tue 11:52:29 PM 58.0167 -40.2167 262° West 460 529 34,000  Level Gander Center
Tue 11:53:29 PM 58.0000 -40.4500 262° West 460 529 34,000  Level Gander Center
Tue 11:54:29 PM 57.9833 -40.6833 260° West 450 518 34,000  Level Gander Center
Tue 11:55:14 PM 57.9667 -40.8667 262° West 450 518 34,000  Level Gander Center
Tue 11:56:14 PM 57.9500 -41.1000 262° West 450 518 34,000  Level Gander Center
Tue 11:57:14 PM 57.9333 -41.3333 262° West 450 518 34,000  Level Gander Center
Tue 11:58:14 PM 57.9167 -41.5667 262° West 460 529 34,000  Level Gander Center
Tue 11:59:14 PM 57.9000 -41.8000 262° West 450 518 34,000  Level Gander Center
Wed 12:00:14 AM 57.8833 -42.0333 262° West 460 529 34,000  Level Gander Center
Wed 12:01:14 AM 57.8667 -42.2667 262° West 450 518 34,000  Level Gander Center
Wed 12:02:14 AM 57.8500 -42.5000 262° West 450 518 34,000  Level Gander Center
Wed 12:03:14 AM 57.8333 -42.7333 262° West 450 518 34,000  Level Gander Center
Wed 12:04:14 AM 57.8167 -42.9667 262° West 450 518 34,000  Level Gander Center
Wed 12:05:14 AM 57.8000 -43.1833 255° West 450 518 34,000  Level Gander Center
Wed 12:06:14 AM 57.7667 -43.4167 262° West 450 518 34,000  Level Gander Center
Wed 12:07:14 AM 57.7500 -43.6500 262° West 450 518 34,000  Level Gander Center
Wed 12:08:14 AM 57.7333 -43.8833 262° West 450 518 34,000  Level Gander Center
Wed 12:09:14 AM 57.7167 -44.1167 262° West 450 518 34,000  Level Gander Center
Wed 12:10:14 AM 57.7000 -44.3500 255° West 450 518 34,000  Level Gander Center
Wed 12:11:14 AM 57.6667 -44.5833 262° West 450 518 34,000  Level Gander Center
Wed 12:12:14 AM 57.6500 -44.8000 262° West 450 518 34,000  Level Gander Center
Wed 12:13:14 AM 57.6333 -45.0167 255° West 450 518 34,000  Level Gander Center
Wed 12:14:14 AM 57.6000 -45.2500 262° West 450 518 34,000  Level Gander Center
Wed 12:15:14 AM 57.5833 -45.4667 263° West 450 518 34,000  Level Gander Center
Wed 12:16:14 AM 57.5667 -45.7000 255° West 450 518 34,000  Level Gander Center
Wed 12:17:14 AM 57.5333 -45.9333 261° West 440 506 34,000  Level Gander Center
Wed 12:18:14 AM 57.5167 -46.1333 255° West 450 518 34,000  Level Gander Center
Wed 12:19:14 AM 57.4833 -46.3667 263° West 450 518 34,000  Level Gander Center
Wed 12:20:14 AM 57.4667 -46.6000 255° West 450 518 34,000  Level Gander Center
Wed 12:21:14 AM 57.4333 -46.8333 263° West 440 506 34,000  Level Gander Center
Wed 12:22:14 AM 57.4167 -47.0667 251° West 440 506 34,000  Level Gander Center
Wed 12:23:14 AM 57.3833 -47.2500 255° West 440 506 34,000  Level Gander Center
Wed 12:24:14 AM 57.3500 -47.4833 263° West 440 506 34,000  Level Gander Center
Wed 12:25:14 AM 57.3333 -47.7167 253° West 440 506 34,000  Level Gander Center
Wed 12:26:14 AM 57.3000 -47.9167 255° West 440 506 34,000  Level Gander Center
Wed 12:27:14 AM 57.2667 -48.1500 262° West 440 506 34,000  Level Gander Center
Wed 12:28:14 AM 57.2500 -48.3667 255° West 440 506 34,000  Level Gander Center
Wed 12:29:14 AM 57.2167 -48.6000 253° West 440 506 34,000  Level Gander Center
Wed 12:30:14 AM 57.1833 -48.8000 262° West 440 506 34,000  Level Gander Center
Wed 12:31:14 AM 57.1667 -49.0167 255° West 440 506 34,000  Level Gander Center
Wed 12:32:14 AM 57.1333 -49.2500 255° West 440 506 34,000  Level Gander Center
Wed 12:33:14 AM 57.1000 -49.4833 252° West 440 506 34,000  Level Gander Center
Wed 12:34:14 AM 57.0667 -49.6667 255° West 440 506 34,000  Level Gander Center
Wed 12:35:14 AM 57.0333 -49.9000 255° West 440 506 34,000  Level Gander Center
Wed 12:36:14 AM 57.0000 -50.1333 248° West 440 506 34,000  Level Gander Center
Wed 12:37:14 AM 56.9667 -50.2833 252° West 430 495 34,000  Level Gander Center
Wed 12:49:10 AM 56.4833 -52.8333 250° West 450 518 34,000  Level Gander Center
Wed 12:53:37 AM 56.3000 -53.7167 246° West 440 506 34,000  Level Gander Center
Wed 12:54:10 AM 56.2667 -53.8500 255° West 440 506 34,000  Level Gander Center
Wed 12:55:10 AM 56.2333 -54.0667 248° West 440 506 34,000  Level Gander Center
Wed 12:56:10 AM 56.1833 -54.2833 244° Southwest 440 506 34,000  Level Gander Center
Wed 12:57:10 AM 56.1333 -54.4667 247° West 440 506 34,000  Level Gander Center
Wed 01:05:47 AM 55.7167 -56.1500 248° West 430 495 34,000 Level Moncton Center
Wed 01:10:10 AM 55.5167 -57.0000 229° Southwest 430 495 34,100 178 Climbing Gander Center
Wed 01:10:51 AM 55.4500 -57.1333 232° Southwest 430 495 34,900 1,188 Climbing Gander Center
Wed 01:11:51 AM 55.3833 -57.2833 231° Southwest 440 506 36,100 1,150 Climbing Gander Center
Wed 01:12:51 AM 55.3000 -57.4667 238° Southwest 440 506 37,200 850 Climbing Gander Center
Wed 01:13:51 AM 55.2333 -57.6500 226° Southwest 450 518 37,800 400 Climbing Gander Center
Wed 01:14:51 AM 55.1500 -57.8000 232° Southwest 460 529 38,000 100 Climbing Gander Center
Wed 01:15:51 AM 55.0667 -57.9833 232° Southwest 450 518 38,000  Level Gander Center
Wed 01:16:51 AM 55.0000 -58.1333 232° Southwest 440 506 38,000  Level Gander Center
Wed 01:17:51 AM 54.9167 -58.3167 232° Southwest 440 506 38,000  Level Gander Center
Wed 01:18:51 AM 54.8333 -58.5000 229° Southwest 440 506 38,000  Level Gander Center
Wed 01:19:47 AM 54.7667 -58.6333 238° Southwest 440 506 38,000  Level Moncton Center
Wed 01:20:47 AM 54.7000 -58.8167 226° Southwest 440 506 38,000  Level Moncton Center
Wed 01:21:47 AM 54.6167 -58.9667 229° Southwest 440 506 38,000  Level Moncton Center
Wed 01:22:47 AM 54.5333 -59.1333 236° Southwest 440 506 38,000  Level Moncton Center
Wed 01:23:47 AM 54.4667 -59.3000 229° Southwest 440 506 38,000  Level Moncton Center
Wed 01:24:47 AM 54.3833 -59.4667 226° Southwest 440 506 38,000  Level Moncton Center
Wed 01:25:47 AM 54.3000 -59.6167 232° Southwest 450 518 38,000  Level Moncton Center
Wed 01:26:47 AM 54.2167 -59.8000 233° Southwest 440 506 38,000  Level Moncton Center
Wed 01:27:47 AM 54.1500 -59.9500 221° Southwest 450 518 38,000  Level Moncton Center
Wed 01:28:47 AM 54.0500 -60.1000 227° Southwest 440 506 38,000  Level Moncton Center
Wed 01:29:47 AM 53.9667 -60.2500 238° Southwest 450 518 38,000  Level Moncton Center
Wed 01:30:47 AM 53.9000 -60.4333 223° Southwest 450 518 38,000  Level Moncton Center
Wed 01:31:47 AM 53.8167 -60.5667 227° Southwest 450 518 38,000  Level Moncton Center
Wed 01:32:47 AM 53.7167 -60.7500 227° Southwest 450 518 38,000  Level Moncton Center
Wed 01:33:47 AM 53.6333 -60.9000 233° Southwest 450 518 38,000  Level Moncton Center
Wed 01:34:47 AM 53.5667 -61.0500 227° Southwest 450 518 38,000  Level Moncton Center
Wed 01:35:47 AM 53.4833 -61.2000 230° Southwest 440 506 38,000  Level Moncton Center
Wed 01:36:47 AM 53.4000 -61.3667 227° Southwest 440 506 38,000  Level Moncton Center
Wed 01:37:47 AM 53.3167 -61.5167 227° Southwest 430 495 38,000  Level Moncton Center
Wed 01:38:47 AM 53.2333 -61.6667 230° Southwest 430 495 38,000  Level Moncton Center
Wed 01:39:47 AM 53.1667 -61.8000 227° Southwest 430 495 38,000  Level Moncton Center
Wed 01:40:47 AM 53.0833 -61.9500 222° Southwest 430 495 38,000  Level Moncton Center
Wed 01:41:47 AM 52.9833 -62.1000 224° Southwest 440 506 38,000  Level Moncton Center
Wed 01:42:47 AM 52.9000 -62.2333 230° Southwest 440 506 38,000  Level Moncton Center
Wed 01:43:47 AM 52.8167 -62.4000 227° Southwest 440 506 38,000  Level Moncton Center
Wed 01:44:47 AM 52.7333 -62.5500 224° Southwest 440 506 38,000  Level Moncton Center
Wed 01:45:47 AM 52.6500 -62.6833 234° Southwest 440 506 38,000  Level Moncton Center
Wed 01:46:47 AM 52.5833 -62.8333 224° Southwest 440 506 38,000  Level Moncton Center
Wed 01:47:47 AM 52.5000 -62.9667 231° Southwest 440 506 38,000  Level Moncton Center
Wed 01:48:47 AM 52.4167 -63.1333 224° Southwest 430 495 38,000  Level Moncton Center
Wed 01:49:47 AM 52.3333 -63.2667 223° Southwest 430 495 38,000  Level Moncton Center
Wed 01:50:47 AM 52.2333 -63.4167 231° Southwest 440 506 38,000  Level Moncton Center
Wed 01:51:47 AM 52.1667 -63.5500 219° Southwest 440 506 38,000  Level Moncton Center
Wed 01:52:47 AM 52.0667 -63.6833 228° Southwest 440 506 38,000  Level Moncton Center
Wed 01:53:47 AM 51.9833 -63.8333 228° Southwest 440 506 38,000  Level Moncton Center
Wed 01:54:47 AM 51.9000 -63.9833 228° Southwest 440 506 38,000  Level Moncton Center
Wed 01:55:47 AM 51.8167 -64.1333 225° Southwest 440 506 38,000  Level Moncton Center
Wed 01:56:47 AM 51.7333 -64.2667 228° Southwest 440 506 38,000  Level Moncton Center
Wed 01:57:47 AM 51.6500 -64.4167 221° Southwest 430 495 38,000  Level Moncton Center
Wed 01:58:47 AM 51.5667 -64.5333 231° Southwest 430 495 38,000  Level Moncton Center
Wed 01:59:47 AM 51.4833 -64.7000 225° Southwest 430 495 38,000  Level Moncton Center
Wed 02:00:47 AM 51.4000 -64.8333 225° Southwest 430 495 38,000  Level Moncton Center
Wed 02:01:47 AM 51.3167 -64.9667 225° Southwest 440 506 38,000  Level Moncton Center
Wed 02:02:47 AM 51.2333 -65.1000 221° Southwest 430 495 38,000  Level Moncton Center
Wed 02:03:47 AM 51.1500 -65.2167 220° Southwest 430 495 38,000  Level Moncton Center
Wed 02:04:47 AM 51.0500 -65.3500 225° Southwest 430 495 38,000  Level Moncton Center
Wed 02:05:47 AM 50.9667 -65.4833 226° Southwest 430 495 38,000  Level Moncton Center
Wed 02:06:47 AM 50.8667 -65.6500 222° Southwest 430 495 38,000  Level Moncton Center
Wed 02:07:47 AM 50.7833 -65.7667 225° Southwest 430 495 38,000  Level Moncton Center
Wed 02:08:47 AM 50.7000 -65.9000 225° Southwest 430 495 38,000  Level Moncton Center
Wed 02:09:47 AM 50.6167 -66.0333 226° Southwest 430 495 38,000  Level Moncton Center
Wed 02:10:47 AM 50.5333 -66.1667 222° Southwest 430 495 38,000  Level Moncton Center
Wed 02:11:47 AM 50.4500 -66.2833 226° Southwest 430 495 38,000  Level Moncton Center
Wed 02:12:47 AM 50.3667 -66.4167 224° Southwest 430 495 38,000  Level Moncton Center
Wed 02:13:47 AM 50.2667 -66.5667 226° Southwest 430 495 38,000 -50 Level Moncton Center
Wed 02:14:47 AM 50.1833 -66.7000 222° Southwest 430 495 37,900  Descending Moncton Center
Wed 02:15:47 AM 50.1000 -66.8167 213° Southwest 430 495 38,000 57 Climbing Moncton Center
Wed 02:16:33 AM 50.0333 -66.8833 226° Southwest 430 495 38,000  Level Montreal Center
Wed 02:17:33 AM 49.9500 -67.0167 222° Southwest 430 495 38,000  Level Montreal Center
Wed 02:18:33 AM 49.8667 -67.1333 217° Southwest 430 495 38,000  Level Montreal Center
Wed 02:19:33 AM 49.7667 -67.2500 229° Southwest 430 495 38,000  Level Montreal Center
Wed 02:20:33 AM 49.7000 -67.3667 224° Southwest 430 495 38,000  Level Montreal Center
Wed 02:21:33 AM 49.6000 -67.5167 222° Southwest 430 495 38,000  Level Montreal Center
Wed 02:22:33 AM 49.5167 -67.6333 221° Southwest 430 495 38,000  Level Montreal Center
Wed 02:23:33 AM 49.4167 -67.7667 229° Southwest 430 495 38,000  Level Montreal Center
Wed 02:24:33 AM 49.3500 -67.8833 221° Southwest 420 483 38,000  Level Montreal Center
Wed 02:25:33 AM 49.2500 -68.0167 222° Southwest 420 483 38,000  Level Montreal Center
Wed 02:26:33 AM 49.1667 -68.1333 218° Southwest 420 483 38,000  Level Montreal Center
Wed 02:27:33 AM 49.0833 -68.2333 213° Southwest 420 483 38,000  Level Montreal Center
Wed 02:28:33 AM 48.9667 -68.3500 218° Southwest 420 483 38,000  Level Montreal Center
Wed 02:29:33 AM 48.8833 -68.4500 209° Southwest 420 483 38,000  Level Montreal Center
Wed 02:30:33 AM 48.7833 -68.5333 213° Southwest 420 483 38,000  Level Montreal Center
Wed 02:31:33 AM 48.6833 -68.6333 218° Southwest 420 483 38,000  Level Montreal Center
Wed 02:32:33 AM 48.5833 -68.7500 209° Southwest 420 483 38,000  Level Montreal Center
Wed 02:33:33 AM 48.4833 -68.8333 214° Southwest 420 483 38,000  Level Montreal Center
Wed 02:34:33 AM 48.3833 -68.9333 219° Southwest 420 483 38,000  Level Montreal Center
Wed 02:35:33 AM 48.3000 -69.0333 214° Southwest 410 472 38,000  Level Montreal Center
Wed 02:36:33 AM 48.2000 -69.1333 209° Southwest 420 483 38,000  Level Montreal Center
Wed 02:37:33 AM 48.1000 -69.2167 209° Southwest 420 483 38,000  Level Montreal Center
Wed 02:38:33 AM 48.0000 -69.3000 218° Southwest 420 483 38,000  Level Montreal Center
Wed 02:39:33 AM 47.9000 -69.4167 214° Southwest 420 483 38,000  Level Montreal Center
Wed 02:40:33 AM 47.8000 -69.5167 209° Southwest 420 483 38,000  Level Montreal Center
Wed 02:41:33 AM 47.7000 -69.6000 223° Southwest 420 483 38,000  Level Montreal Center
Wed 02:42:33 AM 47.6167 -69.7167 209° Southwest 420 483 38,000  Level Montreal Center
Wed 02:43:33 AM 47.5167 -69.8000 209° Southwest 420 483 38,000  Level Montreal Center
Wed 02:44:33 AM 47.4167 -69.8833 218° Southwest 420 483 38,000  Level Montreal Center
Wed 02:45:33 AM 47.3167 -70.0000 214° Southwest 410 472 38,000  Level Montreal Center
Wed 02:46:33 AM 47.2333 -70.0833 210° Southwest 410 472 38,000  Level Montreal Center
Wed 02:47:33 AM 47.1333 -70.1667 219° Southwest 410 472 38,000  Level Montreal Center
Wed 02:48:33 AM 47.0333 -70.2833 210° Southwest 400 460 38,000  Level Montreal Center
Wed 02:49:33 AM 46.9333 -70.3667 221° Southwest 400 460 38,000  Level Montreal Center
Wed 02:50:33 AM 46.8667 -70.4500 206° Southwest 400 460 38,000  Level Montreal Center
Wed 02:51:33 AM 46.7500 -70.5333 214° Southwest 400 460 38,000  Level Montreal Center
Wed 02:52:33 AM 46.6667 -70.6167 211° Southwest 400 460 38,000  Level Montreal Center
Wed 02:53:33 AM 46.5500 -70.7167 215° Southwest 400 460 38,000  Level Montreal Center
Wed 02:54:33 AM 46.4667 -70.8000 215° Southwest 400 460 38,000  Level Montreal Center
Wed 02:55:33 AM 46.3833 -70.8833 215° Southwest 400 460 38,000  Level Montreal Center
Wed 02:56:33 AM 46.2833 -70.9833 210° Southwest 400 460 38,000  Level Montreal Center
Wed 02:57:33 AM 46.1833 -71.0667 210° Southwest 400 460 38,000  Level Montreal Center
Wed 02:58:33 AM 46.0833 -71.1500 215° Southwest 400 460 38,000  Level Montreal Center
Wed 02:59:33 AM 46.0000 -71.2333 215° Southwest 400 460 38,000  Level Montreal Center
Wed 03:00:33 AM 45.9167 -71.3167 210° Southwest 390 449 38,000  Level Montreal Center
Wed 03:01:33 AM 45.8167 -71.4000 215° Southwest 380 437 38,000  Level Montreal Center
Wed 03:02:33 AM 45.7333 -71.4833 209° Southwest 390 449 38,000  Level Montreal Center
Wed 03:03:33 AM 45.6500 -71.5500 219° Southwest 390 449 38,000  Level Montreal Center
Wed 03:04:33 AM 45.5500 -71.6667 209° Southwest 390 449 38,000  Level Montreal Center
Wed 03:05:33 AM 45.4667 -71.7333 210° Southwest 390 449 38,000  Level Montreal Center
Wed 03:06:33 AM 45.3667 -71.8167 215° Southwest 390 449 38,000  Level Montreal Center
Wed 03:07:33 AM 45.2833 -71.9000 199° South 390 449 38,000  Level Montreal Center
Wed 03:08:33 AM 45.1833 -71.9500 210° Southwest 390 449 38,000  Level Montreal Center
Wed 03:09:33 AM 45.0833 -72.0333 199° South 390 449 38,000  Level Montreal Center
Wed 03:10:33 AM 44.9833 -72.0833 211° Southwest 390 449 38,000  Level Montreal Center
Wed 03:11:33 AM 44.8833 -72.1667 211° Southwest 390 449 38,000  Level Montreal Center
Wed 03:12:27 AM 44.8069 -72.2325 207° Southwest 395 455 38,000  Level Boston Center
Wed 03:13:27 AM 44.7069 -72.3028 205° Southwest 395 455 38,000  Level Boston Center
Wed 03:14:27 AM 44.6031 -72.3700 205° Southwest 405 466 38,000  Level Boston Center
Wed 03:15:27 AM 44.5008 -72.4372 205° Southwest 405 466 38,000  Level Boston Center
Wed 03:16:27 AM 44.4072 -72.4983 205° Southwest 405 466 38,000  Level Boston Center
Wed 03:17:27 AM 44.3031 -72.5647 204° Southwest 405 466 38,000  Level Boston Center
Wed 03:18:27 AM 44.2008 -72.6283 206° Southwest 405 466 38,000  Level Boston Center
Wed 03:19:27 AM 44.0986 -72.6975 204° Southwest 405 466 38,000  Level Boston Center
Wed 03:20:27 AM 43.9922 -72.7633 204° Southwest 405 466 38,000  Level Boston Center
Wed 03:21:27 AM 43.8878 -72.8289 206° Southwest 410 472 38,000  Level Boston Center
Wed 03:22:27 AM 43.7853 -72.8972 205° Southwest 410 472 38,000  Level Boston Center
Wed 03:23:27 AM 43.6831 -72.9625 205° Southwest 405 466 38,000  Level Boston Center
Wed 03:24:27 AM 43.5764 -73.0306 204° Southwest 405 466 38,000  Level Boston Center
Wed 03:25:27 AM 43.4633 -73.1008 207° Southwest 412 474 38,000  Level Boston Center
Wed 03:26:27 AM 43.3733 -73.1628 204° Southwest 411 473 38,000  Level Boston Center
Wed 03:27:27 AM 43.2667 -73.2269 204° Southwest 411 473 38,000  Level Boston Center
Wed 03:28:27 AM 43.1619 -73.2911 205° Southwest 411 473 38,000  Level Boston Center
Wed 03:29:27 AM 43.0572 -73.3578 203° Southwest 411 473 38,000 -543 Level Boston Center
Wed 03:31:46 AM 42.7912 -73.5153 204° Southwest 416 479 36,200 -1,133 Descending FlightAware ADS-B
Wed 03:32:27 AM 42.7210 -73.5582 204° Southwest 411 473 34,600 -2,219 Descending FlightAware ADS-B
Wed 03:32:59 AM 42.6653 -73.5920 204° Southwest 403 464 33,500 -2,028 Descending FlightAware ADS-B
Wed 03:33:38 AM 42.5999 -73.6319 204° Southwest 394 453 32,200 -2,028 Descending FlightAware ADS-B
Wed 03:34:10 AM 42.5482 -73.6633 204° Southwest 388 447 31,100 -2,226 Descending FlightAware ADS-B
Wed 03:34:40 AM 42.4987 -73.6934 204° Southwest 385 443 29,900 -2,419 Descending FlightAware ADS-B
Wed 03:35:12 AM 42.4469 -73.7247 204° Southwest 384 442 28,600 -2,571 Descending FlightAware ADS-B
Wed 03:35:43 AM 42.3956 -73.7555 204° Southwest 386 444 27,200 -2,906 Descending FlightAware ADS-B
Wed 03:36:16 AM 42.3424 -73.7876 204° Southwest 391 450 25,500 -2,824 Descending FlightAware ADS-B
Wed 03:37:08 AM 42.2564 -73.8394 204° Southwest 393 452 23,200 -2,471 Descending FlightAware ADS-B
Wed 03:37:41 AM 42.2024 -73.8718 204° Southwest 388 447 22,000 -2,156 Descending FlightAware ADS-B
Wed 03:38:12 AM 42.1517 -73.9020 204° Southwest 380 437 20,900 -2,114 Descending FlightAware ADS-B
Wed 03:39:09 AM 42.0618 -73.9556 204° Southwest 368 423 18,900 -2,000 Descending FlightAware ADS-B
Wed 03:39:45 AM 42.0072 -73.9882 204° Southwest 358 412 17,800 -1,846 Descending FlightAware ADS-B
Wed 03:40:27 AM 41.9497 -74.0228 204° Southwest 362 417 16,500 -2,000 Descending Boston Center
Wed 03:41:27 AM 41.8614 -74.0764 203° Southwest 357 411 14,400 -2,000 Descending Boston Center
Wed 03:42:27 AM 41.7731 -74.1269 205° Southwest 352 405 12,500 -1,800 Descending Boston Center
Wed 03:43:27 AM 41.6908 -74.1775 204° Southwest 347 399 10,800 -1,200 Descending Boston Center
Wed 03:44:27 AM 41.6131 -74.2228 205° Southwest 327 376 10,100 -750 Descending Boston Center
Wed 03:45:27 AM 41.5458 -74.2653 201° Southwest 297 342 9,300 -1,250 Descending Boston Center
Wed 03:46:27 AM 41.4786 -74.2992 204° Southwest 266 306 7,600 -1,150 Descending Boston Center
Wed 03:47:27 AM 41.4217 -74.3336 208° Southwest 260 299 7,000 -308 Descending Boston Center
Wed 03:48:24 AM 41.3500 -74.3833 201° Southwest 258 297 7,000  Level New York TRACON
Wed 03:49:24 AM 41.2833 -74.4167 159° South 258 297 7,000 -250 Level New York TRACON
Wed 03:50:24 AM 41.2167 -74.3833 143° Southeast 280 322 6,500 -600 Descending New York TRACON
Wed 03:51:24 AM 41.1500 -74.3167 151° Southeast 272 313 5,800 -950 Descending New York TRACON
Wed 03:52:24 AM 41.0833 -74.2667 143° Southeast 271 312 4,600 -1,200 Descending New York TRACON
Wed 03:53:24 AM 41.0333 -74.2167 150° Southeast 270 311 3,400 -800 Descending New York TRACON
Wed 03:54:24 AM 40.9667 -74.1667 150° Southeast 260 299 3,000 -200 Descending New York TRACON
Wed 03:55:24 AM 40.9000 -74.1167 143° Southeast 262 302 3,000 50 Level New York TRACON
Wed 03:56:24 AM 40.8500 -74.0667 207° Southwest 208 239 3,100 -300 Climbing New York TRACON
Wed 03:57:24 AM 40.8000 -74.1000 201° Southwest 161 185 2,400 -750 Descending New York TRACON
Wed 03:58:24 AM 40.7667 -74.1167 217° Southwest 159 183 1,600 -800 Descending New York TRACON
Wed 03:59:24 AM 40.7333 -74.1500 217° Southwest 125 144 800 -800 Descending New York TRACON

Login

Don't have an account? Register now (free) for customized features, flight alerts, and more!